Accueil
METAR-TAF:

METAR-TAF

Aéroports :

Aérodrome de Samedan-Engadin

Saint-Moritz, Suisse

latitude: 46-32-03N, longitude: 9-53-03E, altitude: 1707 m

Observation

Le bulletin a été fait il y a 23 minutes, à 15:20 UTC
Vent 7 kt de sud
Température 3°C
Humidité 48%
Pression 1020 hPa
Visibilité 10 km ou plus
pas de nuages en-dessous de 1500 mètres et pas de cumulonimbus.

METAR: LSZS 261520Z 18007KT CAVOK 03/M07 Q1020 RMK R TL170

Heure: 16:43 (15:43 UTC)

Prévision

Le bulletin a été fait il y a 1 heure et 18 minutes, à 14:25 UTC
Prévision valable du 26 à 15 UTC au 26 à 24 UTC
Vent 5 kt de sud/sud-ouest
Visibilité 10 km ou plus
pas de nuages en-dessous de 1500 mètres et pas de cumulonimbus.
Probabilité 30%
du 26 à 21 UTC au 26 à 24 UTC
Visibilité: 9000 m

TAF: LSZS 261425Z 2615/2624 20005KT CAVOK TX06/2615Z PROB30 2621/2624 9000 NSC

Observations et prévisions météorologiques de plus de 4000 aéroports (messages METAR et TAF).

Les stations disponibles sont représentées par des disques jaunes et rouges sur la carte.

Passer la souris dessus pour voir le nom de la station.

Cliquer dessus pour voir les observations et prévisions météorologiques.

Pour changer de carte: cliquez sur les boutons verts avec une croix noire pour zoomer, sur le bouton vert avec un tiret pour effectuer un zoom arrière, ou sur les flèches vertes pour les cartes adjacentes.


METAR-TAF: